Big Bear City, CA

6:08 AM PDT on October 16, 2019 (GMT -0700)
Big Bear City

Weather History for KL35 - September, 2019

Change the Weather History Date:

Saturday, September 21, 2019

  Actual Average (WUND) Record (WUND)
Temperature  
Mean Temperature 48 °F -  
Max Temperature 64 °F - - (-1)
Min Temperature 32 °F - - (-1)
Degree Days  
Heating Degree Days 17    
Moisture  
Dew Point 23 °F    
Average Humidity 45    
Maximum Humidity 81    
Minimum Humidity 18    
Precipitation  
Precipitation 0.00 in - - ()
Sea Level Pressure  
Sea Level Pressure 30.16 in    
Wind  
Wind Speed 2 mph (ENE)    
Max Wind Speed 12 mph    
Max Gust Speed 17 mph    
Visibility 10 miles    
Events      
Averages and records for this station are not official NWS values.
T = Trace of Precipitation, MM = Missing Value Source: NWS Daily Summary

Daily Weather History Graph

Daily Weather History Graph

Search for Another Location

Airport or City:

Astronomy

Sep. 21, 2019 Rise Set
Actual Time 6:34 AM PDT 6:45 PM PDT
Civil Twilight 6:09 AM PDT 7:10 PM PDT
Nautical Twilight 5:40 AM PDT 7:40 PM PDT
Astronomical Twilight 5:10 AM PDT 8:09 PM PDT
Moon 11:44 PM PDT (9/21) 1:28 PM PDT (9/21)
Length of Visible Light 13h 01m
Length of Day
12h 11m
Waning Gibbous, 53% of the Moon is Illuminated
Sep 21
Waning Gibbous
Sep 21
Last Quarter
Sep 28
New
Oct 5
First Quarter
Oct 13
Full

Hourly Weather History & Observations

Time (PDT) Temp. Dew Point Humidity Pressure Visibility Wind Dir Wind Speed Gust Speed Precip Events Conditions
12:15 AM 35.6 °F 23.0 °F 60% 30.14 in 10.0 mi Calm Calm - N/A   Clear
12:35 AM 33.8 °F 23.0 °F 65% 30.15 in 10.0 mi Calm Calm - N/A   Clear
12:55 AM 33.8 °F 23.0 °F 65% 30.15 in 10.0 mi Calm Calm - N/A   Clear
1:15 AM 33.8 °F 23.0 °F 65% 30.15 in 10.0 mi Calm Calm - N/A   Clear
1:35 AM 33.8 °F 23.0 °F 65% 30.15 in 10.0 mi Calm Calm - N/A   Clear
1:55 AM 33.8 °F 23.0 °F 65% 30.16 in 10.0 mi Calm Calm - N/A   Clear
2:15 AM 32.0 °F 24.8 °F 75% 30.15 in 10.0 mi Calm Calm - N/A   Clear
2:35 AM 32.0 °F 24.8 °F 75% 30.15 in 10.0 mi Calm Calm - N/A   Clear
2:55 AM 32.0 °F 24.8 °F 75% 30.14 in 10.0 mi Calm Calm - N/A   Clear
3:15 AM 32.0 °F 24.8 °F 75% 30.14 in 10.0 mi Calm Calm - N/A   Clear
3:35 AM 32.0 °F 24.8 °F 75% 30.14 in 10.0 mi Calm Calm - N/A   Clear
3:55 AM 32.0 °F 24.8 °F 75% 30.14 in 10.0 mi Calm Calm - N/A   Clear
4:15 AM 32.0 °F 24.8 °F 75% 30.14 in 10.0 mi Calm Calm - N/A   Clear
4:35 AM 32.0 °F 24.8 °F 75% 30.14 in 10.0 mi Calm Calm - N/A   Clear
4:55 AM 32.0 °F 26.6 °F 80% 30.14 in 10.0 mi Calm Calm - N/A   Clear
5:15 AM 32.0 °F 24.8 °F 75% 30.14 in 10.0 mi Calm Calm - N/A   Clear
5:35 AM 32.0 °F 24.8 °F 75% 30.14 in 10.0 mi Calm Calm - N/A   Clear
5:55 AM 32.0 °F 26.6 °F 80% 30.14 in 10.0 mi Calm Calm - N/A   Clear
6:15 AM 32.0 °F 26.6 °F 80% 30.15 in 10.0 mi Calm Calm - N/A   Clear
6:35 AM 32.0 °F 26.6 °F 80% 30.16 in 10.0 mi Calm Calm - N/A   Clear
6:55 AM 32.0 °F 26.6 °F 80% 30.16 in 10.0 mi Calm Calm - N/A   Clear
7:15 AM 32.0 °F 26.6 °F 80% 30.16 in 10.0 mi Calm Calm - N/A   Clear
7:35 AM 33.8 °F 28.4 °F 81% 30.17 in 10.0 mi Calm Calm - N/A   Clear
7:55 AM 37.4 °F 28.4 °F 70% 30.17 in 10.0 mi Calm Calm - N/A   Clear
8:15 AM 41.0 °F 30.2 °F 65% 30.17 in 10.0 mi Calm Calm - N/A   Clear
8:35 AM 46.4 °F 30.2 °F 53% 30.17 in 10.0 mi Calm Calm - N/A   Clear
8:55 AM 50.0 °F 30.2 °F 47% 30.18 in 10.0 mi Calm Calm - N/A   Clear
9:15 AM 53.6 °F 28.4 °F 38% 30.18 in 10.0 mi ENE 3.5 mph - N/A   Clear
9:35 AM 55.4 °F 19.4 °F 25% 30.18 in 10.0 mi East 4.6 mph - N/A   Clear
9:55 AM 57.2 °F 21.2 °F 25% 30.18 in 10.0 mi East 5.8 mph - N/A   Clear
10:15 AM 59.0 °F 21.2 °F 23% 30.18 in 10.0 mi NE 4.6 mph - N/A   Clear
10:35 AM 59.0 °F 19.4 °F 22% 30.18 in 10.0 mi Calm Calm - N/A   Clear
10:55 AM 60.8 °F 21.2 °F 22% 30.18 in 10.0 mi East 4.6 mph - N/A   Clear
11:15 AM 60.8 °F 19.4 °F 20% 30.18 in 10.0 mi East 6.9 mph - N/A   Clear
11:35 AM 60.8 °F 19.4 °F 20% 30.17 in 10.0 mi NE 4.6 mph - N/A   Clear
11:55 AM 60.8 °F 19.4 °F 20% 30.17 in 10.0 mi NE 8.1 mph - N/A   Clear
12:15 PM 62.6 °F 21.2 °F 20% 30.17 in 10.0 mi East 10.4 mph 16.1 mph N/A   Clear
12:35 PM 60.8 °F 21.2 °F 22% 30.17 in 10.0 mi East 6.9 mph - N/A   Clear
12:55 PM 62.6 °F 21.2 °F 20% 30.16 in 10.0 mi ENE 11.5 mph - N/A   Clear
1:15 PM 60.8 °F 19.4 °F 20% 30.16 in 7.0 mi NNE 6.9 mph - N/A   Clear
1:35 PM 62.6 °F 19.4 °F 19% 30.16 in 10.0 mi ENE 5.8 mph 17.3 mph N/A   Clear
1:55 PM 62.6 °F 19.4 °F 19% 30.16 in 10.0 mi ENE 8.1 mph - N/A   Clear
2:15 PM 64.4 °F 21.2 °F 19% 30.15 in 10.0 mi East 9.2 mph - N/A   Clear
2:35 PM 62.6 °F 21.2 °F 20% 30.15 in 10.0 mi NE 8.1 mph - N/A   Clear
2:55 PM 64.4 °F 21.2 °F 19% 30.15 in 10.0 mi East 6.9 mph - N/A   Clear
3:15 PM 64.4 °F 21.2 °F 19% 30.14 in 10.0 mi ENE 6.9 mph - N/A   Clear
3:35 PM 62.6 °F 21.2 °F 20% 30.14 in 10.0 mi NE 8.1 mph - N/A   Clear
3:55 PM 64.4 °F 21.2 °F 19% 30.14 in 10.0 mi East 6.9 mph - N/A   Clear
4:15 PM 62.6 °F 21.2 °F 20% 30.14 in 10.0 mi ENE 10.4 mph - N/A   Clear
4:35 PM 64.4 °F 21.2 °F 19% 30.14 in 10.0 mi ENE 6.9 mph - N/A   Clear
4:55 PM 64.4 °F 19.4 °F 18% 30.14 in 10.0 mi ENE 10.4 mph - N/A   Clear
5:15 PM 64.4 °F 19.4 °F 18% 30.14 in 10.0 mi NE 9.2 mph - N/A   Clear
5:35 PM 62.6 °F 19.4 °F 19% 30.14 in 10.0 mi NE 6.9 mph - N/A   Clear
5:55 PM 62.6 °F 19.4 °F 19% 30.15 in 10.0 mi East 6.9 mph - N/A   Clear
6:15 PM 60.8 °F 19.4 °F 20% 30.15 in 10.0 mi NE 5.8 mph - N/A   Clear
6:35 PM 60.8 °F 19.4 °F 20% 30.15 in 10.0 mi East 4.6 mph - N/A   Clear
6:55 PM 59.0 °F 19.4 °F 22% 30.16 in 10.0 mi East 3.5 mph - N/A   Clear
7:15 PM 53.6 °F 21.2 °F 28% 30.16 in 10.0 mi Calm Calm - N/A   Clear
7:35 PM 51.8 °F 21.2 °F 30% 30.17 in 10.0 mi Calm Calm - N/A   Clear
7:55 PM 50.0 °F 21.2 °F 32% 30.17 in 10.0 mi Calm Calm - N/A   Clear
8:15 PM 46.4 °F 21.2 °F 37% 30.18 in 10.0 mi Calm Calm - N/A   Clear
8:35 PM 44.6 °F 21.2 °F 39% 30.19 in 10.0 mi Calm Calm - N/A   Clear
8:55 PM 44.6 °F 21.2 °F 39% 30.20 in 10.0 mi Calm Calm - N/A   Clear
9:15 PM 42.8 °F 19.4 °F 39% 30.20 in 10.0 mi Calm Calm - N/A   Clear
9:35 PM 42.8 °F 21.2 °F 42% 30.21 in 10.0 mi Calm Calm - N/A   Clear
9:55 PM 41.0 °F 21.2 °F 45% 30.21 in 10.0 mi Calm Calm - N/A   Clear
10:15 PM 41.0 °F 21.2 °F 45% 30.21 in 10.0 mi Calm Calm - N/A   Clear
10:35 PM 39.2 °F 21.2 °F 49% 30.21 in 10.0 mi Calm Calm - N/A   Clear
10:55 PM 37.4 °F 21.2 °F 52% 30.21 in 10.0 mi Calm Calm - N/A   Clear
11:15 PM 37.4 °F 23.0 °F 56% 30.21 in 10.0 mi Calm Calm - N/A   Clear
11:35 PM 37.4 °F 23.0 °F 56% 30.21 in 10.0 mi Calm Calm - N/A   Clear
11:55 PM 35.6 °F 23.0 °F 60% 30.20 in 10.0 mi Calm Calm - N/A   Clear